Ahsahka, Idaho
Current Conditions -  °F | °C
As of 5:56 PM on Monday 22 Dec 2014 (Local Time) from KLWS Reporting Station
Clear Clear  
Wind Chill:   Ceiling: Unl
Heat Index:   Visibility: 10mi
Dew Point: -1°   Wind: 7mph
Humidity: 60%   Direction: 220°SW
Pressure: 30.32"   Gusts: NA
Location:  46.51°N, 116.35°W
Report Text: KLWS 230156Z 22006KT 10SM CLR 06/M01 A3032 RMK AO2 SLP274 T00611011
Loading
Personal Weather Stations






























Interactive Weather Map New forecast layout! Learn more

10-Day Weather Forecast

Advertisements
Track Severe Weather on mobile